MDT,Max TemperatureF,Mean TemperatureF,Min TemperatureF,Max Dew PointF,MeanDew PointF,Min DewpointF,Max Humidity, Mean Humidity, Min Humidity, Max Sea Level PressureIn, Mean Sea Level PressureIn, Min Sea Level PressureIn, Max VisibilityMiles, Mean VisibilityMiles, Min VisibilityMiles, Max Wind SpeedMPH, Mean Wind SpeedMPH, Max Gust SpeedMPH,PrecipitationIn, CloudCover, Events, WindDirDegrees
2013-5-1,33,27,21,27,23,16,100,78,56,30.72,30.37,30.12,10,3,0,13,4,15,0.46,6,Fog-Snow,21
2013-5-2,52,36,19,21,17,11,71,48,24,30.75,30.59,30.36,10,10,10,15,4,18,0.00,0,,212
2013-5-3,62,47,32,27,22,16,61,40,18,30.37,30.14,30.00,10,10,10,15,4,18,0.00,2,,354
2013-5-4,53,47,40,39,37,31,86,70,53,30.19,30.12,30.04,10,8,4,16,7,18,0.08,8,Rain,315
2013-5-5,57,48,38,36,31,27,85,60,35,30.17,30.08,30.00,10,10,9,14,5,16,T,2,,295
2013-5-6,67,52,36,33,30,26,76,49,22,30.01,29.91,29.81,10,10,10,16,4,20,0.00,1,,283
2013-5-7,67,55,43,37,34,29,70,52,34,29.93,29.84,29.76,10,10,10,28,6,32,T,3,Rain-Thunderstorm,177
2013-5-8,67,58,48,41,34,29,66,47,27,30.10,29.96,29.86,10,10,9,25,8,32,0.01,7,Rain,306
2013-5-9,70,56,42,38,32,27,62,42,22,30.19,30.05,29.99,10,10,10,29,7,37,T,3,,308
2013-5-10,72,57,41,38,32,23,76,47,18,30.25,30.15,30.09,10,10,10,24,7,30,0.00,3,,304
2013-5-11,71,57,43,39,33,27,66,44,22,30.31,30.19,30.07,10,10,10,22,6,29,0.00,1,,288
2013-5-12,82,65,48,40,33,29,47,32,16,30.12,30.01,29.91,10,10,10,17,6,22,0.00,1,,265
2013-5-13,86,70,53,39,32,28,51,32,13,30.04,29.90,29.76,10,10,10,25,7,37,0.00,0,,241
2013-5-14,83,69,55,43,30,24,39,26,13,29.80,29.75,29.69,10,10,10,31,12,39,0.00,0,,273
2013-5-15,81,65,48,45,36,29,66,44,21,29.90,29.79,29.67,10,10,7,35,8,41,0.01,4,Rain-Thunderstorm,169
2013-5-16,67,59,50,48,44,37,80,61,42,29.90,29.75,29.68,10,9,3,38,6,45,0.15,4,Rain-Thunderstorm,276
2013-5-17,76,62,48,49,40,30,80,50,19,29.89,29.73,29.60,10,10,10,43,9,52,T,0,,240
2013-5-18,69,57,45,45,39,31,93,63,32,29.92,29.79,29.67,10,9,2,24,8,38,0.25,5,Rain-Thunderstorm,289
2013-5-19,53,48,43,45,42,39,92,82,71,30.04,29.94,29.82,10,5,2,15,5,18,0.83,8,Rain,317
2013-5-20,59,51,43,41,38,34,89,68,47,30.08,30.03,29.96,10,9,2,26,9,32,0.04,8,Rain,321
2013-5-21,65,54,42,40,37,34,76,55,34,30.04,29.91,29.78,10,10,9,13,4,17,0.00,3,,148
2013-5-22,69,55,41,45,40,35,79,59,39,29.83,29.74,29.62,10,10,10,22,6,26,0.00,0,,326
2013-5-23,74,60,46,46,41,34,86,57,28,29.91,29.69,29.49,10,10,9,23,7,30,0.00,2,,327
2013-5-24,72,59,45,36,24,12,61,36,10,29.86,29.79,29.65,10,10,10,26,9,33,0.00,0,,234
2013-5-25,78,61,44,34,25,18,48,30,11,29.84,29.76,29.68,10,10,10,28,9,37,0.00,0,,229
2013-5-26,79,62,45,40,31,19,56,34,12,29.83,29.74,29.63,10,10,10,22,7,29,0.00,0,,252
2013-5-27,73,62,50,42,29,20,55,35,14,29.75,29.68,29.62,10,10,10,22,9,28,0.00,1,,293
2013-5-28,67,58,48,45,40,31,71,55,39,29.72,29.63,29.54,10,10,2,30,7,38,0.03,5,Rain-Thunderstorm,283
2013-5-29,56,50,43,45,42,39,89,77,64,29.70,29.63,29.55,10,8,2,17,6,23,0.12,7,Rain-Thunderstorm,1
2013-5-30,65,51,36,39,30,23,85,54,23,29.78,29.66,29.60,10,10,10,24,11,36,0.00,1,,279
2013-5-31,65,52,38,37,28,19,71,46,20,30.15,29.89,29.77,10,10,10,37,13,46,0.00,2,,3